.
WxDataArchive / Data Records for 2008-08-09
2008-08-08 August 2008 2008-08-10

Data Records for Saturday, 09 August 2008

Time	Temp	Chill	HIndex	Humid	Dewpt	 Wind 	HiWind	WindDir	Rain 	Barom 
-----	----	-----	------	-----	-----	------	------	-------	-----	----- 
00:00	60.2	60.2	60.2	80	54.0	0	0	---	0.00	29.899 
00:05	60.1	60.1	60.1	80	53.9	0	0	---	0.00	29.899 
00:10	59.9	59.9	59.9	81	54.1	0	0	---	0.00	29.902 
00:15	59.8	59.8	59.8	81	54.0	0	0	---	0.00	29.903 
00:20	59.5	59.5	59.5	82	54.0	0	0	---	0.00	29.905 
00:25	59.3	59.3	59.3	83	54.1	0	0	---	0.00	29.903 
00:30	59.2	59.2	59.2	83	54.0	0	0	---	0.00	29.900 
00:35	59.0	59.0	59.0	84	54.2	0	0	---	0.00	29.899 
00:40	58.9	58.9	58.9	84	54.1	0	0	---	0.00	29.900 
00:45	58.7	58.7	58.7	85	54.2	0	0	---	0.00	29.899 
00:50	58.7	58.7	58.7	85	54.2	0	0	---	0.00	29.899 
00:55	58.6	58.6	58.6	85	54.1	0	0	---	0.00	29.900 
01:00	58.4	58.4	58.4	85	53.9	0	0	---	0.00	29.901 
01:05	58.4	58.4	58.4	86	54.2	0	0	---	0.00	29.897 
01:10	58.3	58.3	58.3	86	54.1	0	0	---	0.00	29.897 
01:15	58.1	58.1	58.1	86	53.9	0	0	---	0.00	29.896 
01:20	58.0	58.0	58.0	86	53.8	0	0	---	0.00	29.895 
01:25	58.0	58.0	58.0	87	54.1	0	0	---	0.00	29.894 
01:30	57.8	57.8	57.8	87	54.0	0	0	---	0.00	29.894 
01:35	57.6	57.6	57.6	87	53.8	0	0	---	0.00	29.894 
01:40	57.5	57.5	57.5	88	54.0	0	0	---	0.00	29.894 
01:45	57.3	57.3	57.3	88	53.8	0	0	---	0.00	29.893 
01:50	57.3	57.3	57.3	88	53.8	0	0	---	0.00	29.895 
01:55	57.2	57.2	57.2	88	53.7	0	0	---	0.00	29.896 
02:00	57.0	57.0	57.0	89	53.8	0	0	---	0.00	29.896 
02:05	57.0	57.0	57.0	89	53.8	0	0	---	0.00	29.896 
02:10	56.9	56.9	56.9	89	53.7	0	0	---	0.00	29.893 
02:15	56.9	56.9	56.9	89	53.7	0	0	---	0.00	29.892 
02:20	56.7	56.7	56.7	89	53.5	0	0	---	0.00	29.892 
02:25	56.6	56.6	56.6	89	53.4	0	0	---	0.00	29.893 
02:30	56.5	56.5	56.5	89	53.3	0	0	---	0.00	29.895 
02:35	56.5	56.5	56.5	90	53.6	0	0	---	0.00	29.895 
02:40	56.6	56.6	56.6	91	54.0	0	0	---	0.00	29.894 
02:45	56.7	56.7	56.7	91	54.1	0	0	---	0.00	29.894 
02:50	56.7	56.7	56.7	91	54.1	0	0	---	0.00	29.895 
02:55	56.7	56.7	56.7	91	54.1	0	0	---	0.00	29.896 
03:00	56.7	56.7	56.7	91	54.1	0	0	---	0.00	29.896 
03:05	56.6	56.6	56.6	90	53.7	0	0	---	0.00	29.897 
03:10	56.5	56.5	56.5	90	53.6	0	0	---	0.00	29.897 
03:15	56.3	56.3	56.3	90	53.4	0	0	---	0.00	29.896 
03:20	56.2	56.2	56.2	90	53.3	0	0	---	0.00	29.894 
03:25	56.0	56.0	56.0	91	53.4	0	0	---	0.00	29.892 
03:30	55.9	55.9	55.9	91	53.3	0	0	---	0.00	29.890 
03:35	55.9	55.9	55.9	91	53.3	0	0	---	0.00	29.893 
03:40	55.7	55.7	55.7	91	53.1	0	0	---	0.00	29.891 
03:45	55.7	55.7	55.7	92	53.4	0	0	---	0.00	29.891 
03:50	55.6	55.6	55.6	92	53.3	0	0	---	0.00	29.891 
03:55	55.4	55.4	55.4	92	53.1	0	0	---	0.00	29.889 
04:00	55.4	55.4	55.4	92	53.1	0	0	---	0.00	29.890 
04:05	55.3	55.3	55.3	92	53.0	0	0	---	0.00	29.887 
04:10	55.3	55.3	55.3	92	53.0	0	0	---	0.00	29.889 
04:15	55.1	55.1	55.1	92	52.8	0	0	---	0.00	29.891 
04:20	55.1	55.1	55.1	92	52.8	0	0	---	0.00	29.891 
04:25	55.1	55.1	55.1	92	52.8	0	0	---	0.00	29.891 
04:30	55.0	55.0	55.0	93	53.0	0	0	---	0.00	29.891 
04:35	55.0	55.0	55.0	93	53.0	0	0	---	0.00	29.889 
04:40	55.0	55.0	55.0	93	53.0	0	0	---	0.00	29.891 
04:45	55.0	55.0	55.0	93	53.0	0	0	---	0.00	29.890 
04:50	55.0	55.0	55.0	93	53.0	0	0	---	0.00	29.889 
04:55	55.0	55.0	55.0	94	53.3	0	0	---	0.00	29.886 
05:00	55.0	55.0	55.0	94	53.3	0	0	---	0.00	29.887 
05:05	55.0	55.0	55.0	94	53.3	0	0	---	0.00	29.888 
05:10	54.8	54.8	54.8	94	53.1	0	0	---	0.00	29.886 
05:15	54.7	54.7	54.7	94	53.0	0	0	---	0.00	29.885 
05:20	54.5	54.5	54.5	94	52.8	0	0	---	0.00	29.885 
05:25	54.4	54.4	54.4	94	52.7	0	0	---	0.00	29.885 
05:30	54.4	54.4	54.4	94	52.7	0	0	---	0.00	29.884 
05:35	54.2	54.2	54.2	94	52.5	0	0	---	0.00	29.884 
05:40	54.2	54.2	54.2	94	52.5	0	0	---	0.00	29.884 
05:45	54.2	54.2	54.2	94	52.5	0	0	---	0.00	29.883 
05:50	54.2	54.2	54.2	94	52.5	0	0	---	0.00	29.885 
05:55	54.1	54.1	54.1	94	52.4	0	0	---	0.00	29.886 
06:00	54.1	54.1	54.1	94	52.4	0	0	---	0.00	29.889 
06:05	54.1	54.1	54.1	95	52.7	0	0	---	0.00	29.895 
06:10	54.1	54.1	54.1	95	52.7	0	0	---	0.00	29.896 
06:15	54.1	54.1	54.1	95	52.7	0	0	---	0.00	29.898 
06:20	54.2	54.2	54.2	95	52.8	0	0	---	0.00	29.900 
06:25	54.2	54.2	54.2	95	52.8	0	0	---	0.00	29.899 
06:30	54.4	54.4	54.4	95	53.0	0	0	---	0.00	29.899 
06:35	54.7	54.7	54.7	95	53.3	0	0	---	0.00	29.899 
06:40	55.1	55.1	55.1	95	53.7	0	0	---	0.00	29.899 
06:45	55.9	55.9	55.9	96	54.8	0	0	---	0.00	29.897 
06:50	56.5	56.5	56.5	96	55.4	0	0	---	0.00	29.896 
06:55	57.2	57.2	57.2	96	56.1	0	0	---	0.00	29.896 
07:00	57.8	57.8	57.8	95	56.4	0	0	---	0.00	29.897 
07:05	58.6	58.6	58.6	95	57.2	0	1	315	0.00	29.899 
07:10	59.2	59.2	59.2	94	57.5	0	2	315	0.00	29.901 
07:15	59.8	59.8	59.8	93	57.8	0	1	315	0.00	29.899 
07:20	60.5	60.5	60.5	91	57.9	0	1	315	0.00	29.899 
07:25	61.2	61.2	61.2	88	57.6	0	1	315	0.00	29.899 
07:30	61.8	61.8	61.8	87	57.9	0	1	315	0.00	29.897 
07:35	62.4	62.4	62.4	84	57.5	0	1	315	0.00	29.896 
07:40	63.2	63.2	63.2	82	57.6	0	1	315	0.00	29.896 
07:45	64.0	64.0	64.0	80	57.7	0	1	315	0.00	29.894 
07:50	64.7	64.7	64.7	79	58.0	0	1	315	0.00	29.894 
07:55	65.3	65.3	65.3	76	57.5	0	2	315	0.00	29.895 
08:00	65.8	65.8	65.8	75	57.6	0	1	315	0.00	29.894 
08:05	66.0	66.0	66.0	72	56.7	1	2	315	0.00	29.898 
08:10	66.4	66.4	66.4	73	57.5	0	2	315	0.00	29.898 
08:15	66.8	66.8	66.8	71	57.1	1	2	292	0.00	29.894 
08:20	67.3	67.3	67.3	71	57.6	0	2	292	0.00	29.894 
08:25	67.6	67.6	67.6	70	57.5	0	1	292	0.00	29.893 
08:30	67.9	67.9	67.9	67	56.5	1	2	292	0.00	29.893 
08:35	68.4	68.4	68.4	66	56.6	1	2	292	0.00	29.893 
08:40	68.8	68.8	68.8	66	57.0	0	2	292	0.00	29.891 
08:45	69.3	69.3	69.3	63	56.2	1	3	292	0.00	29.893 
08:50	69.9	69.9	69.9	62	56.3	1	4	292	0.00	29.896 
08:55	70.1	70.1	70.1	61	56.0	1	3	292	0.00	29.898 
09:00	70.1	70.1	70.1	60	55.6	1	3	292	0.00	29.895 
09:05	70.4	70.4	70.4	60	55.8	1	3	292	0.00	29.898 
09:10	70.8	70.8	70.8	62	57.1	1	3	248	0.00	29.894 
09:15	71.1	71.1	71.1	61	57.0	1	2	248	0.00	29.894 
09:20	71.1	71.1	71.1	58	55.6	1	2	315	0.00	29.894 
09:25	71.1	71.1	71.1	59	56.0	1	2	315	0.00	29.894 
09:30	71.5	71.5	71.5	60	56.9	1	3	315	0.00	29.892 
09:35	72.0	72.0	72.0	57	55.9	1	2	248	0.00	29.894 
09:40	72.7	72.7	72.7	58	57.1	1	2	248	0.00	29.891 
09:45	73.0	73.0	73.0	56	56.4	1	2	248	0.00	29.887 
09:50	73.3	73.3	73.3	52	54.6	1	4	248	0.00	29.885 
09:55	73.9	73.9	73.9	52	55.1	1	2	248	0.00	29.880 
10:00	73.9	73.9	73.9	52	55.1	1	3	248	0.00	29.886 
10:05	74.2	74.2	74.2	51	54.9	1	2	270	0.00	29.888 
10:10	74.7	74.7	74.7	50	54.8	1	4	270	0.00	29.884 
10:15	74.9	74.9	74.9	49	54.4	2	5	315	0.00	29.883 
10:20	75.1	75.1	77.7	50	55.2	2	4	248	0.00	29.881 
10:25	75.3	75.3	77.7	49	54.8	1	3	315	0.00	29.878 
10:30	75.6	75.6	77.9	48	54.5	1	5	315	0.00	29.878 
10:35	75.6	75.6	77.9	47	53.9	1	3	315	0.00	29.877 
10:40	76.0	76.0	78.0	48	54.9	1	3	315	0.00	29.876 
10:45	76.1	76.1	78.1	49	55.5	1	3	270	0.00	29.875 
10:50	76.1	76.1	78.1	49	55.5	2	4	270	0.00	29.878 
10:55	76.0	76.0	78.1	49	55.4	2	4	270	0.00	29.877 
11:00	76.3	76.3	78.2	50	56.3	1	3	315	0.00	29.875 
11:05	76.7	76.7	78.3	46	54.3	2	4	292	0.00	29.877 
11:10	76.5	76.5	78.3	47	54.7	2	3	270	0.00	29.878 
11:15	76.3	76.3	78.1	46	54.0	2	4	270	0.00	29.878 
11:20	76.8	76.8	78.5	50	56.7	1	4	248	0.00	29.876 
11:25	76.8	76.8	78.3	45	53.8	2	5	270	0.00	29.873 
11:30	76.7	76.7	78.3	46	54.3	3	4	270	0.00	29.871 
11:35	76.7	76.7	78.3	46	54.3	2	6	315	0.00	29.871 
11:40	76.8	76.8	78.4	47	55.0	2	5	292	0.00	29.867 
11:45	77.0	77.0	78.5	47	55.2	2	7	270	0.00	29.866 
11:50	77.4	77.4	78.7	46	55.0	1	3	248	0.00	29.864 
11:55	77.7	77.7	78.9	46	55.2	2	5	248	0.00	29.861 
12:00	77.7	77.7	78.9	46	55.2	2	6	225	0.00	29.862 
12:05	77.9	77.9	79.0	46	55.4	2	4	248	0.00	29.862 
12:10	77.2	77.2	78.6	46	54.8	2	5	270	0.00	29.862 
12:15	76.7	76.7	78.4	47	54.9	3	7	270	0.00	29.863 
12:20	76.8	76.8	78.4	48	55.6	2	6	270	0.00	29.861 
12:25	77.2	77.2	78.6	47	55.4	2	6	270	0.00	29.860 
12:30	77.2	77.2	78.7	49	56.5	3	6	270	0.00	29.857 
12:35	76.8	76.8	78.4	48	55.6	2	6	248	0.00	29.859 
12:40	76.7	76.7	78.4	48	55.5	2	5	270	0.00	29.855 
12:45	76.7	76.7	78.4	50	56.6	2	5	270	0.00	29.849 
12:50	76.7	76.7	78.4	48	55.5	3	7	270	0.00	29.849 
12:55	76.1	76.1	78.1	49	55.5	2	7	248	0.00	29.849 
13:00	76.5	76.5	78.3	48	55.3	2	6	270	0.00	29.846 
13:05	76.7	76.7	78.4	48	55.5	3	5	270	0.00	29.847 
13:10	77.0	77.0	78.5	48	55.8	3	7	270	0.00	29.844 
13:15	77.0	77.0	78.5	48	55.8	2	5	248	0.00	29.842 
13:20	76.8	76.8	78.5	49	56.2	2	4	270	0.00	29.837 
13:25	77.6	77.6	78.9	49	56.9	1	4	270	0.00	29.838 
13:30	77.9	77.9	79.1	48	56.6	2	4	248	0.00	29.836 
13:35	77.9	77.9	79.1	48	56.6	3	5	270	0.00	29.836 
13:40	77.6	77.6	78.9	48	56.3	2	5	270	0.00	29.837 
13:45	77.0	77.0	78.5	48	55.8	2	4	270	0.00	29.835 
13:50	76.7	76.7	78.4	47	54.9	2	5	248	0.00	29.835 
13:55	76.7	76.7	78.4	50	56.6	2	4	248	0.00	29.833 
14:00	77.4	77.4	78.7	47	55.6	3	6	270	0.00	29.832 
14:05	77.4	77.4	78.7	47	55.6	3	5	270	0.00	29.833 
14:10	77.2	77.2	78.6	47	55.4	2	4	248	0.00	29.831 
14:15	76.8	76.8	78.4	47	55.0	2	5	270	0.00	29.827 
14:20	77.2	77.2	78.7	48	56.0	3	6	270	0.00	29.827 
14:25	77.7	77.7	79.0	49	57.0	2	6	270	0.00	29.825 
14:30	77.2	77.2	78.7	49	56.5	3	7	270	0.00	29.824 
14:35	77.4	77.4	78.9	53	58.9	1	5	248	0.00	29.821 
14:40	77.4	77.4	78.8	50	57.3	2	5	270	0.00	29.820 
14:45	76.8	76.8	78.4	48	55.6	2	5	270	0.00	29.822 
14:50	76.3	76.3	78.2	49	55.7	2	4	270	0.00	29.821 
14:55	76.1	76.1	78.1	51	56.6	1	4	270	0.00	29.821 
15:00	76.1	76.1	78.1	51	56.6	2	5	248	0.00	29.820 
15:05	76.1	76.1	78.1	51	56.6	2	4	270	0.00	29.822 
15:10	76.0	76.0	78.1	52	57.1	2	4	270	0.00	29.824 
15:15	75.6	75.6	77.9	52	56.7	2	5	248	0.00	29.822 
15:20	75.6	75.6	77.9	54	57.8	1	5	248	0.00	29.821 
15:25	75.4	75.4	77.8	53	57.1	1	4	248	0.00	29.820 
15:30	75.3	75.3	77.7	54	57.5	1	3	248	0.00	29.819 
15:35	75.3	75.3	77.7	54	57.5	1	4	292	0.00	29.818 
15:40	75.3	75.3	77.7	54	57.5	3	6	270	0.00	29.818 
15:45	75.3	75.3	77.7	54	57.5	2	5	270	0.00	29.814 
15:50	75.4	75.4	77.8	54	57.6	2	5	270	0.00	29.817 
15:55	75.8	75.8	78.0	54	57.9	2	4	248	0.00	29.818 
16:00	76.0	76.0	78.1	54	58.1	1	3	248	0.00	29.817 
16:05	76.1	76.1	78.1	54	58.2	2	4	270	0.00	29.815 
16:10	76.3	76.3	78.3	54	58.4	2	5	270	0.00	29.817 
16:15	76.1	76.1	78.1	53	57.7	2	5	248	0.00	29.818 
16:20	75.8	75.8	78.0	53	57.4	1	5	248	0.00	29.816 
16:25	75.6	75.6	77.9	53	57.2	1	4	292	0.00	29.813 
16:30	75.3	75.3	77.7	53	57.0	2	4	248	0.00	29.815 
16:35	75.1	75.1	77.6	54	57.3	2	5	248	0.00	29.811 
16:40	75.1	75.1	77.6	54	57.3	1	4	270	0.00	29.808 
16:45	75.3	75.3	77.7	56	58.5	1	5	292	0.00	29.809 
16:50	76.0	76.0	78.1	53	57.6	2	5	292	0.00	29.813 
16:55	76.1	76.1	78.1	53	57.7	2	4	270	0.00	29.816 
17:00	76.0	76.0	78.1	55	58.6	1	3	270	0.00	29.819 
17:05	75.6	75.6	77.8	55	58.3	2	3	248	0.00	29.820 
17:10	75.1	75.1	77.6	56	58.3	1	3	292	0.00	29.820 
17:15	74.7	74.7	74.7	57	58.4	1	4	270	0.00	29.817 
17:20	74.4	74.4	74.4	58	58.6	0	3	270	0.00	29.813 
17:25	74.2	74.2	74.2	58	58.5	0	2	270	0.00	29.810 
17:30	74.0	74.0	74.0	59	58.7	0	1	270	0.00	29.809 
17:35	74.0	74.0	74.0	59	58.7	0	1	270	0.00	29.809 
17:40	74.0	74.0	74.0	60	59.2	0	1	270	0.00	29.808 
17:45	73.9	73.9	73.9	59	58.7	1	2	270	0.00	29.808 
17:50	73.9	73.9	73.9	60	59.1	0	1	270	0.00	29.805 
17:55	73.7	73.7	73.7	59	58.5	0	3	292	0.00	29.806 
18:00	73.7	73.7	73.7	60	58.9	0	2	292	0.00	29.807 
18:05	73.5	73.5	73.5	65	61.0	0	1	292	0.00	29.813 
18:10	70.6	70.6	70.6	70	60.3	2	9	315	0.04	29.820 
18:15	67.4	67.4	67.4	78	60.3	1	4	315	0.05	29.833 
18:20	66.0	66.0	66.0	84	61.0	0	1	315	0.04	29.828 
18:25	65.5	65.5	65.5	87	61.5	0	1	315	0.00	29.825 
18:30	65.3	65.3	65.3	89	62.0	0	2	315	0.00	29.827 
18:35	65.2	65.2	65.2	90	62.2	0	1	315	0.00	29.827 
18:40	65.2	65.2	65.2	92	62.8	0	1	315	0.00	29.827 
18:45	65.2	65.2	65.2	92	62.8	0	1	315	0.00	29.824 
18:50	65.3	65.3	65.3	93	63.2	0	1	315	0.00	29.825 
18:55	65.5	65.5	65.5	93	63.4	0	1	315	0.00	29.823 
19:00	65.6	65.6	65.6	93	63.5	0	1	315	0.00	29.824 
19:05	65.6	65.6	65.6	93	63.5	0	1	315	0.00	29.818 
19:10	65.6	65.6	65.6	93	63.5	0	1	315	0.00	29.820 
19:15	65.5	65.5	65.5	93	63.4	0	1	315	0.00	29.819 
19:20	65.3	65.3	65.3	93	63.2	0	1	315	0.00	29.821 
19:25	65.2	65.2	65.2	93	63.1	0	1	315	0.00	29.822 
19:30	65.2	65.2	65.2	93	63.1	0	1	315	0.00	29.824 
19:35	65.2	65.2	65.2	94	63.4	0	1	315	0.00	29.825 
19:40	65.0	65.0	65.0	94	63.2	0	1	315	0.00	29.825 
19:45	65.0	65.0	65.0	94	63.2	0	1	315	0.00	29.827 
19:50	64.8	64.8	64.8	94	63.0	0	1	315	0.00	29.831 
19:55	64.7	64.7	64.7	94	62.9	0	1	315	0.00	29.834 
20:00	64.7	64.7	64.7	94	62.9	0	1	315	0.00	29.833 
20:05	64.5	64.5	64.5	94	62.7	0	1	315	0.00	29.832 
20:10	64.5	64.5	64.5	94	62.7	0	0	---	0.00	29.833 
20:15	64.3	64.3	64.3	94	62.5	0	0	---	0.00	29.834 
20:20	64.3	64.3	64.3	94	62.5	0	0	---	0.00	29.837 
20:25	64.3	64.3	64.3	94	62.5	0	0	---	0.00	29.842 
20:30	64.2	64.2	64.2	94	62.4	0	0	---	0.00	29.844 
20:35	64.2	64.2	64.2	94	62.4	0	0	---	0.00	29.845 
20:40	64.2	64.2	64.2	94	62.4	0	0	---	0.00	29.847 
20:45	64.0	64.0	64.0	94	62.2	0	0	---	0.00	29.845 
20:50	64.0	64.0	64.0	94	62.2	0	0	---	0.00	29.844 
20:55	63.9	63.9	63.9	95	62.4	0	0	---	0.00	29.846 
21:00	63.9	63.9	63.9	95	62.4	0	0	---	0.00	29.846 
21:05	63.9	63.9	63.9	95	62.4	0	0	---	0.00	29.842 
21:10	63.9	63.9	63.9	95	62.4	0	0	---	0.00	29.841 
21:15	63.9	63.9	63.9	95	62.4	0	0	---	0.00	29.840 
21:20	63.9	63.9	63.9	95	62.4	0	0	---	0.00	29.839 
21:25	63.7	63.7	63.7	95	62.2	0	0	---	0.00	29.840 
21:30	63.7	63.7	63.7	95	62.2	0	0	---	0.00	29.840 
21:35	63.7	63.7	63.7	95	62.2	0	0	---	0.00	29.841 
21:40	63.7	63.7	63.7	95	62.2	0	0	---	0.00	29.841 
21:45	63.7	63.7	63.7	95	62.2	0	0	---	0.00	29.842 
21:50	63.9	63.9	63.9	95	62.4	0	0	---	0.00	29.842 
21:55	63.9	63.9	63.9	95	62.4	0	0	---	0.00	29.842 
22:00	63.9	63.9	63.9	95	62.4	0	1	315	0.00	29.842 
22:05	64.0	64.0	64.0	95	62.5	0	1	315	0.00	29.841 
22:10	64.2	64.2	64.2	95	62.7	0	1	315	0.00	29.842 
22:15	64.2	64.2	64.2	95	62.7	0	1	315	0.00	29.841 
22:20	64.3	64.3	64.3	95	62.8	0	1	315	0.00	29.841 
22:25	64.3	64.3	64.3	95	62.8	0	1	315	0.00	29.839 
22:30	64.3	64.3	64.3	95	62.8	0	1	315	0.00	29.841 
22:35	64.3	64.3	64.3	95	62.8	0	0	---	0.00	29.842 
22:40	64.3	64.3	64.3	95	62.8	0	0	---	0.00	29.843 
22:45	64.3	64.3	64.3	95	62.8	0	2	315	0.00	29.846 
22:50	64.2	64.2	64.2	95	62.7	0	1	315	0.00	29.849 
22:55	64.0	64.0	64.0	95	62.5	0	1	315	0.00	29.849 
23:00	63.9	63.9	63.9	95	62.4	0	0	---	0.00	29.849 
23:05	63.7	63.7	63.7	95	62.2	0	0	---	0.00	29.846 
23:10	63.7	63.7	63.7	95	62.2	0	0	---	0.00	29.848 
23:15	63.5	63.5	63.5	95	62.0	0	0	---	0.00	29.847 
23:20	63.2	63.2	63.2	95	61.7	0	0	---	0.00	29.849 
23:25	63.1	63.1	63.1	95	61.6	0	0	---	0.00	29.850 
23:30	62.9	62.9	62.9	95	61.4	0	0	---	0.00	29.853 
23:35	62.7	62.7	62.7	95	61.2	0	0	---	0.00	29.852 
23:40	62.4	62.4	62.4	95	60.9	0	0	---	0.00	29.851 
23:45	62.3	62.3	62.3	95	60.8	0	0	---	0.00	29.851 
23:50	62.1	62.1	62.1	95	60.6	0	0	---	0.00	29.851 
23:55	61.8	61.8	61.8	95	60.3	0	0	---	0.00	29.850 

CoCoRaHS
IN-AL-39
A2 Web Hosting
Creative Commons License
GoDaddy
Look for:

loaded 2017-12-13 02:49:36 • last modified 2010-11-18 10:43:29
Privacy PolicyDisclaimer
• wx.awcolley.com is powered by PmWiki v.2002016 •
• all content (unless otherwise noted) © 2017 A W Colley